sensor_id;sensor_type;location;lat;lon;timestamp;pressure;altitude;pressure_sealevel;temperature;humidity
55038;BME280;40937;53.594;10.034;2022-08-11T00:00:19;78157.28;;;-147.20;51.64
55038;BME280;40937;53.594;10.034;2022-08-11T00:02:50;78165.38;;;-147.20;51.73
55038;BME280;40937;53.594;10.034;2022-08-11T00:05:19;78159.31;;;-147.20;51.82
55038;BME280;40937;53.594;10.034;2022-08-11T00:07:48;78165.38;;;-147.20;51.89
55038;BME280;40937;53.594;10.034;2022-08-11T00:10:19;78165.38;;;-147.20;51.64
55038;BME280;40937;53.594;10.034;2022-08-11T00:12:52;78167.38;;;-147.20;51.98
55038;BME280;40937;53.594;10.034;2022-08-11T00:15:21;78173.44;;;-147.20;52.12
55038;BME280;40937;53.594;10.034;2022-08-11T00:17:49;78187.56;;;-147.20;52.50
55038;BME280;40937;53.594;10.034;2022-08-11T00:20:22;78197.66;;;-147.20;52.54
55038;BME280;40937;53.594;10.034;2022-08-11T00:23:00;78193.63;;;-147.20;52.55
55038;BME280;40937;53.594;10.034;2022-08-11T00:25:28;78193.63;;;-147.20;52.42
55038;BME280;40937;53.594;10.034;2022-08-11T00:27:56;78195.66;;;-147.20;52.54
55038;BME280;40937;53.594;10.034;2022-08-11T00:30:23;78205.75;;;-147.20;52.88
55038;BME280;40937;53.594;10.034;2022-08-11T00:32:54;78215.84;;;-147.20;52.91
55038;BME280;40937;53.594;10.034;2022-08-11T00:35:26;78219.88;;;-147.20;53.09
55038;BME280;40937;53.594;10.034;2022-08-11T00:37:54;78227.97;;;-147.20;53.30
55038;BME280;40937;53.594;10.034;2022-08-11T00:40:25;78232.00;;;-147.20;53.29
55038;BME280;40937;53.594;10.034;2022-08-11T00:43:02;78242.09;;;-147.20;53.68
55038;BME280;40937;53.594;10.034;2022-08-11T00:45:38;78242.09;;;-147.20;53.77
55038;BME280;40937;53.594;10.034;2022-08-11T00:48:13;78244.13;;;-147.20;53.77
55038;BME280;40937;53.594;10.034;2022-08-11T00:50:48;78242.09;;;-147.20;54.00
55038;BME280;40937;53.594;10.034;2022-08-11T00:53:32;78250.16;;;-147.20;54.03
55038;BME280;40937;53.594;10.034;2022-08-11T00:56:40;78248.16;;;-147.20;54.17
55038;BME280;40937;53.594;10.034;2022-08-11T00:59:30;78248.16;;;-147.20;54.12
55038;BME280;40937;53.594;10.034;2022-08-11T01:02:17;78260.25;;;-147.20;54.34
55038;BME280;40937;53.594;10.034;2022-08-11T01:05:13;78266.31;;;-147.20;54.26
55038;BME280;40937;53.594;10.034;2022-08-11T01:11:01;78276.41;;;-147.20;54.64
55038;BME280;40937;53.594;10.034;2022-08-11T01:14:11;78280.47;;;-147.20;54.47
55038;BME280;40937;53.594;10.034;2022-08-11T01:20:16;78284.50;;;-147.20;55.02
55038;BME280;40937;53.594;10.034;2022-08-11T01:23:05;78296.63;;;-147.20;55.02
55038;BME280;40937;53.594;10.034;2022-08-11T01:26:18;78304.69;;;-147.20;55.29
55038;BME280;40937;53.594;10.034;2022-08-11T01:32:06;78308.72;;;-147.20;55.62
55038;BME280;40937;53.594;10.034;2022-08-11T01:43:47;78322.88;;;-147.20;56.14
55038;BME280;40937;53.594;10.034;2022-08-11T01:46:45;78318.81;;;-147.20;56.16
55038;BME280;40937;53.594;10.034;2022-08-11T01:49:19;78322.88;;;-147.20;56.20
55038;BME280;40937;53.594;10.034;2022-08-11T01:52:03;78322.88;;;-147.20;56.38
55038;BME280;40937;53.594;10.034;2022-08-11T01:54:41;78330.94;;;-147.20;56.44
55038;BME280;40937;53.594;10.034;2022-08-11T01:57:24;78330.94;;;-147.20;56.42
55038;BME280;40937;53.594;10.034;2022-08-11T01:59:59;78332.97;;;-147.20;56.81
55038;BME280;40937;53.594;10.034;2022-08-11T02:02:38;78339.00;;;-147.20;56.66
55038;BME280;40937;53.594;10.034;2022-08-11T02:05:26;78341.03;;;-147.20;56.91
55038;BME280;40937;53.594;10.034;2022-08-11T02:08:03;78343.06;;;-147.20;57.04
55038;BME280;40937;53.594;10.034;2022-08-11T02:10:42;78345.06;;;-147.20;57.06
55038;BME280;40937;53.594;10.034;2022-08-11T02:13:40;78345.06;;;-147.20;57.15
55038;BME280;40937;53.594;10.034;2022-08-11T02:16:16;78347.09;;;-147.20;57.16
55038;BME280;40937;53.594;10.034;2022-08-11T02:18:49;78351.13;;;-147.20;57.26
55038;BME280;40937;53.594;10.034;2022-08-11T02:21:43;78349.13;;;-147.20;57.38
55038;BME280;40937;53.594;10.034;2022-08-11T02:24:29;78351.13;;;-147.20;57.54
55038;BME280;40937;53.594;10.034;2022-08-11T02:27:04;78351.13;;;-147.20;57.53
55038;BME280;40937;53.594;10.034;2022-08-11T02:29:39;78351.13;;;-147.20;57.51
55038;BME280;40937;53.594;10.034;2022-08-11T02:32:12;78343.06;;;-147.20;57.52
55038;BME280;40937;53.594;10.034;2022-08-11T02:35:04;78351.13;;;-147.20;57.61
55038;BME280;40937;53.594;10.034;2022-08-11T02:37:44;78355.16;;;-147.20;57.57
55038;BME280;40937;53.594;10.034;2022-08-11T02:40:23;78355.16;;;-147.20;57.88
55038;BME280;40937;53.594;10.034;2022-08-11T02:43:06;78369.31;;;-147.20;57.90
55038;BME280;40937;53.594;10.034;2022-08-11T02:45:47;78359.22;;;-147.20;57.88
55038;BME280;40937;53.594;10.034;2022-08-11T02:48:37;78363.25;;;-147.20;57.83
55038;BME280;40937;53.594;10.034;2022-08-11T02:54:14;78373.34;;;-147.20;58.04
55038;BME280;40937;53.594;10.034;2022-08-11T02:56:49;78373.34;;;-147.20;58.28
55038;BME280;40937;53.594;10.034;2022-08-11T02:59:36;78371.31;;;-147.20;58.15
55038;BME280;40937;53.594;10.034;2022-08-11T03:02:25;78375.38;;;-147.20;58.18
55038;BME280;40937;53.594;10.034;2022-08-11T03:05:04;78375.38;;;-147.20;58.29
55038;BME280;40937;53.594;10.034;2022-08-11T03:07:40;78383.44;;;-147.20;58.28
55038;BME280;40937;53.594;10.034;2022-08-11T03:10:17;78377.38;;;-147.20;58.27
55038;BME280;40937;53.594;10.034;2022-08-11T03:12:50;78375.38;;;-147.20;58.27
55038;BME280;40937;53.594;10.034;2022-08-11T03:18:17;78373.34;;;-147.20;58.25
55038;BME280;40937;53.594;10.034;2022-08-11T03:20:55;78379.41;;;-147.20;58.38
55038;BME280;40937;53.594;10.034;2022-08-11T03:23:27;78391.50;;;-147.20;58.57
55038;BME280;40937;53.594;10.034;2022-08-11T03:26:00;78395.56;;;-147.20;58.86
55038;BME280;40937;53.594;10.034;2022-08-11T03:28:33;78403.63;;;-147.20;58.88
55038;BME280;40937;53.594;10.034;2022-08-11T03:31:17;78407.66;;;-147.20;58.95
55038;BME280;40937;53.594;10.034;2022-08-11T03:33:53;78409.69;;;-147.20;58.98
55038;BME280;40937;53.594;10.034;2022-08-11T03:36:49;78409.69;;;-147.20;59.10
55038;BME280;40937;53.594;10.034;2022-08-11T03:39:22;78411.72;;;-147.20;59.20
55038;BME280;40937;53.594;10.034;2022-08-11T03:42:09;78413.72;;;-147.20;59.39
55038;BME280;40937;53.594;10.034;2022-08-11T03:44:46;78417.75;;;-147.20;59.35
55038;BME280;40937;53.594;10.034;2022-08-11T03:47:24;78423.81;;;-147.20;59.20
55038;BME280;40937;53.594;10.034;2022-08-11T03:50:06;78421.81;;;-147.20;59.48
55038;BME280;40937;53.594;10.034;2022-08-11T03:52:48;78415.75;;;-147.20;59.23
55038;BME280;40937;53.594;10.034;2022-08-11T03:55:37;78421.81;;;-147.20;59.59
55038;BME280;40937;53.594;10.034;2022-08-11T03:58:38;78429.88;;;-147.20;59.54
55038;BME280;40937;53.594;10.034;2022-08-11T04:01:35;78433.91;;;-147.20;59.69
55038;BME280;40937;53.594;10.034;2022-08-11T04:04:44;78429.88;;;-147.20;59.70
55038;BME280;40937;53.594;10.034;2022-08-11T04:10:45;78433.91;;;-147.20;59.82
55038;BME280;40937;53.594;10.034;2022-08-11T04:13:39;78439.97;;;-147.20;59.89
55038;BME280;40937;53.594;10.034;2022-08-11T04:16:15;78442.00;;;-147.20;59.88
55038;BME280;40937;53.594;10.034;2022-08-11T04:22:13;78435.94;;;-147.20;60.26
55038;BME280;40937;53.594;10.034;2022-08-11T04:24:57;78439.97;;;-147.20;60.19
55038;BME280;40937;53.594;10.034;2022-08-11T04:27:58;78437.97;;;-147.20;60.23
55038;BME280;40937;53.594;10.034;2022-08-11T04:30:34;78433.91;;;-147.20;60.04
55038;BME280;40937;53.594;10.034;2022-08-11T04:33:32;78435.94;;;-147.20;60.17
55038;BME280;40937;53.594;10.034;2022-08-11T04:36:10;78415.75;;;-147.20;60.05
55038;BME280;40937;53.594;10.034;2022-08-11T04:39:12;78417.75;;;-147.20;60.07
55038;BME280;40937;53.594;10.034;2022-08-11T04:42:05;78413.72;;;-147.20;59.97
55038;BME280;40937;53.594;10.034;2022-08-11T04:45:34;78409.69;;;-147.20;60.04
55038;BME280;40937;53.594;10.034;2022-08-11T04:48:13;78411.72;;;-147.20;60.20
55038;BME280;40937;53.594;10.034;2022-08-11T04:51:22;78417.75;;;-147.20;60.14
55038;BME280;40937;53.594;10.034;2022-08-11T04:54:22;78407.66;;;-147.20;60.18
55038;BME280;40937;53.594;10.034;2022-08-11T04:57:17;78399.59;;;-147.20;59.46
55038;BME280;40937;53.594;10.034;2022-08-11T05:00:05;78387.47;;;-147.20;59.36
55038;BME280;40937;53.594;10.034;2022-08-11T05:03:22;78373.34;;;-147.20;58.78
55038;BME280;40937;53.594;10.034;2022-08-11T05:06:11;78373.34;;;-147.20;58.66
55038;BME280;40937;53.594;10.034;2022-08-11T05:09:12;78371.31;;;-147.20;58.60
55038;BME280;40937;53.594;10.034;2022-08-11T05:12:15;78359.22;;;-147.20;58.28
55038;BME280;40937;53.594;10.034;2022-08-11T05:14:48;78363.25;;;-147.20;58.39
55038;BME280;40937;53.594;10.034;2022-08-11T05:17:39;78359.22;;;-147.20;58.28
55038;BME280;40937;53.594;10.034;2022-08-11T05:20:27;78347.09;;;-147.20;58.14
55038;BME280;40937;53.594;10.034;2022-08-11T05:23:11;78347.09;;;-147.20;58.03
55038;BME280;40937;53.594;10.034;2022-08-11T05:25:58;78351.13;;;-147.20;58.03
55038;BME280;40937;53.594;10.034;2022-08-11T05:28:50;78318.81;;;-147.20;58.38
55038;BME280;40937;53.594;10.034;2022-08-11T05:31:37;78302.66;;;-147.20;57.36
55038;BME280;40937;53.594;10.034;2022-08-11T05:34:24;78298.63;;;-147.20;57.09
55038;BME280;40937;53.594;10.034;2022-08-11T05:37:13;78278.44;;;-147.20;56.97
55038;BME280;40937;53.594;10.034;2022-08-11T05:39:46;78276.41;;;-147.20;56.82
55038;BME280;40937;53.594;10.034;2022-08-11T05:42:33;78248.16;;;-147.20;56.23
55038;BME280;40937;53.594;10.034;2022-08-11T05:45:20;78254.22;;;-147.20;56.09
55038;BME280;40937;53.594;10.034;2022-08-11T05:48:05;78248.16;;;-147.20;55.87
55038;BME280;40937;53.594;10.034;2022-08-11T05:50:51;78244.13;;;-147.20;56.81
55038;BME280;40937;53.594;10.034;2022-08-11T05:53:45;78213.81;;;-147.20;55.46
55038;BME280;40937;53.594;10.034;2022-08-11T05:56:32;78205.75;;;-147.20;54.77
55038;BME280;40937;53.594;10.034;2022-08-11T05:59:00;78203.72;;;-147.20;54.77
55038;BME280;40937;53.594;10.034;2022-08-11T06:01:29;78195.66;;;-147.20;54.52
55038;BME280;40937;53.594;10.034;2022-08-11T06:04:02;78177.47;;;-147.20;54.46
55038;BME280;40937;53.594;10.034;2022-08-11T06:06:47;78163.34;;;-147.20;53.72
55038;BME280;40937;53.594;10.034;2022-08-11T06:09:28;78151.22;;;-147.20;53.42
55038;BME280;40937;53.594;10.034;2022-08-11T06:12:00;78135.06;;;-147.20;53.86
55038;BME280;40937;53.594;10.034;2022-08-11T06:14:27;78124.97;;;-147.20;52.92
55038;BME280;40937;53.594;10.034;2022-08-11T06:16:57;78112.88;;;-147.20;52.49
55038;BME280;40937;53.594;10.034;2022-08-11T06:19:32;78102.78;;;-147.20;52.45
55038;BME280;40937;53.594;10.034;2022-08-11T06:22:01;78094.69;;;-147.20;52.13
55038;BME280;40937;53.594;10.034;2022-08-11T06:24:30;78090.66;;;-147.20;52.01
55038;BME280;40937;53.594;10.034;2022-08-11T06:26:59;78082.56;;;-147.20;51.43
55038;BME280;40937;53.594;10.034;2022-08-11T06:29:27;78074.50;;;-147.20;51.75
55038;BME280;40937;53.594;10.034;2022-08-11T06:31:56;78068.44;;;-147.20;51.04
55038;BME280;40937;53.594;10.034;2022-08-11T06:34:48;78054.31;;;-147.20;50.72
55038;BME280;40937;53.594;10.034;2022-08-11T06:37:26;78036.13;;;-147.20;50.74
55038;BME280;40937;53.594;10.034;2022-08-11T06:40:04;78022.00;;;-147.20;49.67
55038;BME280;40937;53.594;10.034;2022-08-11T06:42:50;78013.94;;;-147.20;49.83
55038;BME280;40937;53.594;10.034;2022-08-11T06:45:28;78007.88;;;-147.20;48.63
55038;BME280;40937;53.594;10.034;2022-08-11T06:47:56;77997.78;;;-147.20;48.72
55038;BME280;40937;53.594;10.034;2022-08-11T06:50:26;78003.84;;;-147.20;48.64
55038;BME280;40937;53.594;10.034;2022-08-11T06:53:16;77981.63;;;-147.20;48.16
55038;BME280;40937;53.594;10.034;2022-08-11T06:55:46;77985.66;;;-147.20;47.53
55038;BME280;40937;53.594;10.034;2022-08-11T06:58:34;77983.66;;;-147.20;47.71
55038;BME280;40937;53.594;10.034;2022-08-11T07:01:25;77969.50;;;-147.20;48.07
55038;BME280;40937;53.594;10.034;2022-08-11T07:04:01;77959.41;;;-147.20;47.51
55038;BME280;40937;53.594;10.034;2022-08-11T07:06:38;77945.28;;;-147.20;46.98
55038;BME280;40937;53.594;10.034;2022-08-11T07:09:27;77929.13;;;-147.20;46.42
55038;BME280;40937;53.594;10.034;2022-08-11T07:12:36;77915.00;;;-147.20;46.80
55038;BME280;40937;53.594;10.034;2022-08-11T07:15:27;77910.97;;;-147.20;46.56
55038;BME280;40937;53.594;10.034;2022-08-11T07:18:11;77910.97;;;-147.20;46.83
55038;BME280;40937;53.594;10.034;2022-08-11T07:21:07;77902.88;;;-147.20;46.00
55038;BME280;40937;53.594;10.034;2022-08-11T07:23:54;77892.78;;;-147.20;45.39
55038;BME280;40937;53.594;10.034;2022-08-11T07:26:42;77884.72;;;-147.20;46.01
55038;BME280;40937;53.594;10.034;2022-08-11T07:29:31;77880.66;;;-147.20;45.59
55038;BME280;40937;53.594;10.034;2022-08-11T07:32:05;77872.59;;;-147.20;46.12
55038;BME280;40937;53.594;10.034;2022-08-11T07:34:37;77864.53;;;-147.20;45.48
55038;BME280;40937;53.594;10.034;2022-08-11T07:37:09;77858.47;;;-147.20;45.40
55038;BME280;40937;53.594;10.034;2022-08-11T07:39:38;77854.44;;;-147.20;45.15
55038;BME280;40937;53.594;10.034;2022-08-11T07:42:06;77836.25;;;-147.20;45.02
55038;BME280;40937;53.594;10.034;2022-08-11T07:44:35;77824.13;;;-147.20;44.23
55038;BME280;40937;53.594;10.034;2022-08-11T07:47:23;77814.03;;;-147.20;44.03
55038;BME280;40937;53.594;10.034;2022-08-11T07:50:09;77812.03;;;-147.20;43.93
55038;BME280;40937;53.594;10.034;2022-08-11T07:52:54;77803.94;;;-147.20;43.62
55038;BME280;40937;53.594;10.034;2022-08-11T07:55:22;77801.94;;;-147.20;43.73
55038;BME280;40937;53.594;10.034;2022-08-11T07:57:50;77801.94;;;-147.20;44.06
55038;BME280;40937;53.594;10.034;2022-08-11T08:00:39;77791.84;;;-147.20;43.91
55038;BME280;40937;53.594;10.034;2022-08-11T08:03:25;77787.78;;;-147.20;43.80
55038;BME280;40937;53.594;10.034;2022-08-11T08:06:10;77785.78;;;-147.20;43.62
55038;BME280;40937;53.594;10.034;2022-08-11T08:08:55;77783.75;;;-147.20;43.55
55038;BME280;40937;53.594;10.034;2022-08-11T08:11:41;77779.72;;;-147.20;43.47
55038;BME280;40937;53.594;10.034;2022-08-11T08:14:27;77769.63;;;-147.20;43.08
55038;BME280;40937;53.594;10.034;2022-08-11T08:17:13;77763.56;;;-147.20;43.06
55038;BME280;40937;53.594;10.034;2022-08-11T08:19:58;77753.47;;;-147.20;42.90
55038;BME280;40937;53.594;10.034;2022-08-11T08:22:25;77747.41;;;-147.20;42.89
55038;BME280;40937;53.594;10.034;2022-08-11T08:24:54;77749.44;;;-147.20;42.21
55038;BME280;40937;53.594;10.034;2022-08-11T08:27:22;77745.41;;;-147.20;42.04
55038;BME280;40937;53.594;10.034;2022-08-11T08:29:50;77737.31;;;-147.20;41.50
55038;BME280;40937;53.594;10.034;2022-08-11T08:32:39;77733.28;;;-147.20;41.49
55038;BME280;40937;53.594;10.034;2022-08-11T08:35:07;77715.13;;;-147.20;41.47
55038;BME280;40937;53.594;10.034;2022-08-11T08:37:36;77709.06;;;-147.20;41.35
55038;BME280;40937;53.594;10.034;2022-08-11T08:40:05;77707.03;;;-147.20;41.32
55038;BME280;40937;53.594;10.034;2022-08-11T08:42:37;77696.94;;;-147.20;41.32
55038;BME280;40937;53.594;10.034;2022-08-11T08:45:09;77692.91;;;-147.20;41.20
55038;BME280;40937;53.594;10.034;2022-08-11T08:47:40;77682.81;;;-147.20;40.35
55038;BME280;40937;53.594;10.034;2022-08-11T08:50:10;77676.75;;;-147.20;40.24
55038;BME280;40937;53.594;10.034;2022-08-11T08:52:49;77656.56;;;-147.20;40.08
55038;BME280;40937;53.594;10.034;2022-08-11T08:55:18;77642.44;;;-147.20;39.99
55038;BME280;40937;53.594;10.034;2022-08-11T08:57:48;77642.44;;;-147.20;39.83
55038;BME280;40937;53.594;10.034;2022-08-11T09:00:17;77634.34;;;-147.20;39.79
55038;BME280;40937;53.594;10.034;2022-08-11T09:02:48;77632.34;;;-147.20;39.68
55038;BME280;40937;53.594;10.034;2022-08-11T09:05:16;77628.31;;;-147.20;39.79
55038;BME280;40937;53.594;10.034;2022-08-11T09:07:44;77628.31;;;-147.20;39.70
55038;BME280;40937;53.594;10.034;2022-08-11T09:10:13;77622.25;;;-147.20;39.75
55038;BME280;40937;53.594;10.034;2022-08-11T09:12:42;77612.16;;;-147.20;39.18
55038;BME280;40937;53.594;10.034;2022-08-11T09:15:10;77596.00;;;-147.20;38.77
55038;BME280;40937;53.594;10.034;2022-08-11T09:17:40;77585.91;;;-147.20;38.32
55038;BME280;40937;53.594;10.034;2022-08-11T09:20:12;77579.84;;;-147.20;38.01
55038;BME280;40937;53.594;10.034;2022-08-11T09:22:41;77561.69;;;-147.20;37.37
55038;BME280;40937;53.594;10.034;2022-08-11T09:25:29;77547.53;;;-147.20;37.46
55038;BME280;40937;53.594;10.034;2022-08-11T09:28:15;77533.41;;;-147.20;37.51
55038;BME280;40937;53.594;10.034;2022-08-11T09:30:43;77529.38;;;-147.20;37.17
55038;BME280;40937;53.594;10.034;2022-08-11T09:33:12;77519.28;;;-147.20;36.97
55038;BME280;40937;53.594;10.034;2022-08-11T09:35:41;77525.34;;;-147.20;37.05
55038;BME280;40937;53.594;10.034;2022-08-11T09:38:12;77517.25;;;-147.20;36.95
55038;BME280;40937;53.594;10.034;2022-08-11T09:40:57;77503.13;;;-147.20;36.97
55038;BME280;40937;53.594;10.034;2022-08-11T09:43:26;77505.16;;;-147.20;36.90
55038;BME280;40937;53.594;10.034;2022-08-11T09:46:11;77505.16;;;-147.20;36.54
55038;BME280;40937;53.594;10.034;2022-08-11T09:48:41;77495.06;;;-147.20;36.76
55038;BME280;40937;53.594;10.034;2022-08-11T09:51:12;77462.75;;;-147.20;36.38
55038;BME280;40937;53.594;10.034;2022-08-11T09:53:40;77460.75;;;-147.20;36.22
55038;BME280;40937;53.594;10.034;2022-08-11T09:56:12;77456.69;;;-147.20;36.21
55038;BME280;40937;53.594;10.034;2022-08-11T09:58:58;77444.59;;;-147.20;35.76
55038;BME280;40937;53.594;10.034;2022-08-11T10:01:30;77426.41;;;-147.20;35.27
55038;BME280;40937;53.594;10.034;2022-08-11T10:04:00;77404.22;;;-147.20;35.42
55038;BME280;40937;53.594;10.034;2022-08-11T10:06:36;77390.06;;;-147.20;35.16
55038;BME280;40937;53.594;10.034;2022-08-11T10:09:23;77384.03;;;-147.20;35.13
55038;BME280;40937;53.594;10.034;2022-08-11T10:11:52;77382.00;;;-147.20;35.21
55038;BME280;40937;53.594;10.034;2022-08-11T10:14:20;77386.03;;;-147.20;35.24
55038;BME280;40937;53.594;10.034;2022-08-11T10:17:06;77392.09;;;-147.20;35.29
55038;BME280;40937;53.594;10.034;2022-08-11T10:19:33;77371.91;;;-147.20;34.92
55038;BME280;40937;53.594;10.034;2022-08-11T10:22:04;77353.75;;;-147.20;34.63
55038;BME280;40937;53.594;10.034;2022-08-11T10:24:49;77343.66;;;-147.20;34.76
55038;BME280;40937;53.594;10.034;2022-08-11T10:27:34;77333.56;;;-147.20;34.50
55038;BME280;40937;53.594;10.034;2022-08-11T10:30:02;77327.50;;;-147.20;34.42
55038;BME280;40937;53.594;10.034;2022-08-11T10:32:48;77315.38;;;-147.20;34.63
55038;BME280;40937;53.594;10.034;2022-08-11T10:35:34;77309.31;;;-147.20;34.44
55038;BME280;40937;53.594;10.034;2022-08-11T10:38:02;77295.19;;;-147.20;33.92
55038;BME280;40937;53.594;10.034;2022-08-11T10:40:30;77307.31;;;-147.20;34.02
55038;BME280;40937;53.594;10.034;2022-08-11T10:42:59;77299.22;;;-147.20;33.99
55038;BME280;40937;53.594;10.034;2022-08-11T10:45:31;77293.19;;;-147.20;33.62
55038;BME280;40937;53.594;10.034;2022-08-11T10:48:16;77287.13;;;-147.20;33.79
55038;BME280;40937;53.594;10.034;2022-08-11T10:50:46;77291.16;;;-147.20;33.86
55038;BME280;40937;53.594;10.034;2022-08-11T10:53:33;77283.09;;;-147.20;33.63
55038;BME280;40937;53.594;10.034;2022-08-11T10:56:18;77281.06;;;-147.20;33.25
55038;BME280;40937;53.594;10.034;2022-08-11T10:59:03;77246.75;;;-147.20;33.00
55038;BME280;40937;53.594;10.034;2022-08-11T11:01:34;77244.72;;;-147.20;33.00
55038;BME280;40937;53.594;10.034;2022-08-11T11:04:04;77232.63;;;-147.20;33.47
55038;BME280;40937;53.594;10.034;2022-08-11T11:06:42;77222.53;;;-147.20;33.48
55038;BME280;40937;53.594;10.034;2022-08-11T11:09:15;77216.47;;;-147.20;33.33
55038;BME280;40937;53.594;10.034;2022-08-11T11:11:47;77206.38;;;-147.20;33.32
55038;BME280;40937;53.594;10.034;2022-08-11T11:14:33;77204.34;;;-147.20;33.32
55038;BME280;40937;53.594;10.034;2022-08-11T11:17:26;77212.44;;;-147.20;33.23
55038;BME280;40937;53.594;10.034;2022-08-11T11:20:13;77190.22;;;-147.20;32.50
55038;BME280;40937;53.594;10.034;2022-08-11T11:22:42;77176.09;;;-147.20;32.14
55038;BME280;40937;53.594;10.034;2022-08-11T11:25:24;77180.13;;;-147.20;32.26
55038;BME280;40937;53.594;10.034;2022-08-11T11:31:03;77143.78;;;-147.20;31.44
55038;BME280;40937;53.594;10.034;2022-08-11T11:33:42;77127.66;;;-147.20;31.06
55038;BME280;40937;53.594;10.034;2022-08-11T11:36:18;77125.63;;;-147.20;31.52
55038;BME280;40937;53.594;10.034;2022-08-11T11:38:51;77119.56;;;-147.20;31.32
55038;BME280;40937;53.594;10.034;2022-08-11T11:41:22;77117.56;;;-147.20;31.54
55038;BME280;40937;53.594;10.034;2022-08-11T11:43:50;77105.44;;;-147.20;31.31
55038;BME280;40937;53.594;10.034;2022-08-11T11:46:17;77113.50;;;-147.20;31.43
55038;BME280;40937;53.594;10.034;2022-08-11T11:48:44;77101.41;;;-147.20;31.37
55038;BME280;40937;53.594;10.034;2022-08-11T11:51:12;77099.38;;;-147.20;31.16
55038;BME280;40937;53.594;10.034;2022-08-11T11:53:41;77079.19;;;-147.20;30.06
55038;BME280;40937;53.594;10.034;2022-08-11T11:56:08;77067.09;;;-147.20;29.66
55038;BME280;40937;53.594;10.034;2022-08-11T11:58:38;77057.00;;;-147.20;29.48
55038;BME280;40937;53.594;10.034;2022-08-11T12:01:24;77057.00;;;-147.20;29.83
55038;BME280;40937;53.594;10.034;2022-08-11T12:03:53;77048.91;;;-147.20;30.02
55038;BME280;40937;53.594;10.034;2022-08-11T12:06:22;77046.91;;;-147.20;30.24
55038;BME280;40937;53.594;10.034;2022-08-11T12:08:55;77032.78;;;-147.20;30.59
55038;BME280;40937;53.594;10.034;2022-08-11T12:11:24;77028.72;;;-147.20;30.62
55038;BME280;40937;53.594;10.034;2022-08-11T12:14:11;77014.59;;;-147.20;30.41
55038;BME280;40937;53.594;10.034;2022-08-11T12:16:43;77008.53;;;-147.20;30.50
55038;BME280;40937;53.594;10.034;2022-08-11T12:19:13;76984.31;;;-147.20;30.03
55038;BME280;40937;53.594;10.034;2022-08-11T12:21:40;76986.34;;;-147.20;30.08
55038;BME280;40937;53.594;10.034;2022-08-11T12:25:26;76990.38;;;-147.20;31.06
55038;BME280;40937;53.594;10.034;2022-08-11T12:29:04;76972.22;;;-147.20;30.26
55038;BME280;40937;53.594;10.034;2022-08-11T12:42:38;76931.84;;;-147.20;28.65
55038;BME280;40937;53.594;10.034;2022-08-11T12:45:24;76917.72;;;-147.20;28.60
55038;BME280;40937;53.594;10.034;2022-08-11T12:48:06;76917.72;;;-147.20;29.52
55038;BME280;40937;53.594;10.034;2022-08-11T12:50:54;76897.53;;;-147.20;29.50
55038;BME280;40937;53.594;10.034;2022-08-11T13:05:47;76828.91;;;-147.20;28.67
55038;BME280;40937;53.594;10.034;2022-08-11T13:08:22;76822.84;;;-147.20;28.94
55038;BME280;40937;53.594;10.034;2022-08-11T13:10:59;76796.59;;;-147.20;28.98
55038;BME280;40937;53.594;10.034;2022-08-11T13:13:53;76776.41;;;-147.20;29.19
55038;BME280;40937;53.594;10.034;2022-08-11T13:17:16;76742.09;;;-147.20;28.85
55038;BME280;40937;53.594;10.034;2022-08-11T13:20:25;76736.03;;;-147.20;28.32
55038;BME280;40937;53.594;10.034;2022-08-11T13:23:19;76719.91;;;-147.20;28.46
55038;BME280;40937;53.594;10.034;2022-08-11T13:25:48;76705.78;;;-147.20;28.58
55038;BME280;40937;53.594;10.034;2022-08-11T13:28:18;76683.56;;;-147.20;28.10
55038;BME280;40937;53.594;10.034;2022-08-11T13:30:46;76665.41;;;-147.20;28.02
55038;BME280;40937;53.594;10.034;2022-08-11T13:33:48;76651.28;;;-147.20;27.76
55038;BME280;40937;53.594;10.034;2022-08-11T13:36:18;76649.25;;;-147.20;27.45
55038;BME280;40937;53.594;10.034;2022-08-11T13:38:47;76649.25;;;-147.20;27.34
55038;BME280;40937;53.594;10.034;2022-08-11T13:41:14;76649.25;;;-147.20;27.16
55038;BME280;40937;53.594;10.034;2022-08-11T13:44:01;76655.31;;;-147.20;27.64
55038;BME280;40937;53.594;10.034;2022-08-11T13:46:28;76651.28;;;-147.20;27.50
55038;BME280;40937;53.594;10.034;2022-08-11T13:48:56;76639.16;;;-147.20;27.52
55038;BME280;40937;53.594;10.034;2022-08-11T13:51:23;76631.09;;;-147.20;27.47
55038;BME280;40937;53.594;10.034;2022-08-11T13:54:01;76637.16;;;-147.20;27.53
55038;BME280;40937;53.594;10.034;2022-08-11T13:56:29;76649.25;;;-147.20;27.45
55038;BME280;40937;53.594;10.034;2022-08-11T13:58:57;76639.16;;;-147.20;27.45
55038;BME280;40937;53.594;10.034;2022-08-11T14:01:27;76616.97;;;-147.20;27.25
55038;BME280;40937;53.594;10.034;2022-08-11T14:03:58;76592.75;;;-147.20;26.88
55038;BME280;40937;53.594;10.034;2022-08-11T14:06:29;76572.56;;;-147.20;27.97
55038;BME280;40937;53.594;10.034;2022-08-11T14:08:58;76574.56;;;-147.20;28.60
55038;BME280;40937;53.594;10.034;2022-08-11T14:11:27;76572.56;;;-147.20;28.93
55038;BME280;40937;53.594;10.034;2022-08-11T14:14:21;76562.47;;;-147.20;27.95
55038;BME280;40937;53.594;10.034;2022-08-11T14:16:51;76552.38;;;-147.20;27.79
55038;BME280;40937;53.594;10.034;2022-08-11T14:19:22;76552.38;;;-147.20;28.16
55038;BME280;40937;53.594;10.034;2022-08-11T14:21:50;76548.34;;;-147.20;27.37
55038;BME280;40937;53.594;10.034;2022-08-11T14:24:34;76562.47;;;-147.20;27.36
55038;BME280;40937;53.594;10.034;2022-08-11T14:27:02;76572.56;;;-147.20;27.24
55038;BME280;40937;53.594;10.034;2022-08-11T14:29:31;76566.50;;;-147.20;27.62